createdAt,value
2023-11-24T00:01:59.263Z,89.38
2023-11-24T00:04:31.961Z,88.69
2023-11-24T00:07:03.017Z,87.89
2023-11-24T00:09:33.667Z,88.50
2023-11-24T00:12:03.019Z,87.93
2023-11-24T00:14:34.010Z,87.64
2023-11-24T00:17:05.864Z,87.71
2023-11-24T00:19:36.380Z,87.88
2023-11-24T00:22:07.364Z,88.20
2023-11-24T00:24:40.273Z,88.11
2023-11-24T00:27:12.525Z,88.20
2023-11-24T00:29:42.784Z,87.99
2023-11-24T00:32:12.254Z,87.47
2023-11-24T00:34:44.401Z,87.53
2023-11-24T00:37:17.201Z,87.31
2023-11-24T00:39:51.543Z,86.93
2023-11-24T00:42:24.667Z,87.46
2023-11-24T00:44:58.369Z,87.24
2023-11-24T00:47:27.855Z,87.19
2023-11-24T00:49:58.345Z,87.17
2023-11-24T00:52:28.976Z,87.82
2023-11-24T00:55:01.602Z,88.04
2023-11-24T00:57:31.688Z,87.94
2023-11-24T01:00:04.599Z,88.36
2023-11-24T01:02:37.701Z,87.97
2023-11-24T01:05:10.979Z,87.92
2023-11-24T01:07:43.510Z,88.01
2023-11-24T01:10:14.351Z,88.63
2023-11-24T01:12:44.839Z,87.72
2023-11-24T01:15:16.256Z,87.75
2023-11-24T01:17:46.887Z,88.73
2023-11-24T01:20:17.859Z,88.05
2023-11-24T01:22:48.695Z,87.93
2023-11-24T01:25:21.056Z,88.36
2023-11-24T01:27:52.861Z,88.21
2023-11-24T01:30:24.607Z,88.38
2023-11-24T01:32:54.791Z,87.56
2023-11-24T01:35:27.938Z,88.43
2023-11-24T01:38:01.299Z,87.89
2023-11-24T01:40:30.608Z,87.78
2023-11-24T01:43:02.026Z,87.68
2023-11-24T01:45:32.842Z,87.38
2023-11-24T01:48:04.437Z,87.61
2023-11-24T01:50:37.965Z,88.07
2023-11-24T01:53:09.754Z,88.13
2023-11-24T01:55:39.225Z,88.16
2023-11-24T01:58:10.256Z,88.81
2023-11-24T02:00:40.295Z,88.98
2023-11-24T02:03:11.745Z,89.24
2023-11-24T02:05:43.247Z,88.71
2023-11-24T02:08:16.750Z,88.61
2023-11-24T02:10:46.830Z,89.53
2023-11-24T02:13:26.211Z,89.53
2023-11-24T02:15:58.164Z,89.63
2023-11-24T02:18:28.889Z,89.30
2023-11-24T02:20:59.111Z,88.93
2023-11-24T02:23:30.195Z,88.89
2023-11-24T02:26:01.434Z,89.29
2023-11-24T02:28:32.540Z,89.58
2023-11-24T02:31:05.080Z,89.37
2023-11-24T02:33:42.228Z,89.26
2023-11-24T02:36:22.124Z,88.97
2023-11-24T02:38:54.875Z,88.73
2023-11-24T02:41:26.299Z,88.34
2023-11-24T02:43:56.841Z,88.53
2023-11-24T02:46:26.480Z,88.70
2023-11-24T02:48:58.395Z,88.29
2023-11-24T02:51:29.328Z,88.63
2023-11-24T02:53:58.928Z,88.96
2023-11-24T02:56:31.382Z,89.68
2023-11-24T02:59:02.785Z,89.42
2023-11-24T03:01:35.069Z,89.09
2023-11-24T03:04:07.164Z,88.91
2023-11-24T03:06:44.669Z,88.57
2023-11-24T03:09:15.394Z,88.48
2023-11-24T03:11:46.176Z,88.97
2023-11-24T03:14:15.821Z,88.65
2023-11-24T03:16:48.146Z,88.68
2023-11-24T03:19:18.794Z,89.16
2023-11-24T03:21:51.668Z,89.21
2023-11-24T03:24:21.391Z,89.56
2023-11-24T03:26:51.970Z,89.62
2023-11-24T03:29:22.016Z,89.31
2023-11-24T03:31:53.245Z,89.57
2023-11-24T03:34:23.471Z,89.35
2023-11-24T03:36:55.990Z,89.01
2023-11-24T03:39:29.264Z,88.48
2023-11-24T03:42:00.912Z,88.67
2023-11-24T03:44:34.309Z,88.80
2023-11-24T03:47:04.876Z,88.84
2023-11-24T03:49:34.913Z,87.89
2023-11-24T03:52:09.664Z,88.47
2023-11-24T03:54:39.701Z,88.18
2023-11-24T03:57:12.970Z,88.88
2023-11-24T03:59:42.609Z,88.43
2023-11-24T04:02:12.455Z,88.29
2023-11-24T04:04:46.554Z,88.24
2023-11-24T04:07:18.256Z,88.46
2023-11-24T04:09:48.702Z,88.32
2023-11-24T04:12:21.562Z,88.20
2023-11-24T04:14:51.625Z,87.85
2023-11-24T04:17:22.797Z,87.58
2023-11-24T04:19:53.745Z,88.57
2023-11-24T04:22:24.140Z,88.62
2023-11-24T04:24:57.251Z,88.61
2023-11-24T04:27:26.283Z,89.04
2023-11-24T04:29:58.650Z,88.91
2023-11-24T04:32:30.758Z,89.39
2023-11-24T04:35:01.944Z,89.58
2023-11-24T04:37:33.284Z,89.63
2023-11-24T04:40:04.694Z,89.39
2023-11-24T04:42:36.774Z,89.99
2023-11-24T04:45:06.816Z,89.96
2023-11-24T04:47:41.626Z,89.69
2023-11-24T04:50:13.035Z,90.26
2023-11-24T04:52:43.992Z,90.15
2023-11-24T04:55:15.651Z,89.77
2023-11-24T04:57:51.096Z,89.59
2023-11-24T05:00:21.950Z,89.90
2023-11-24T05:02:53.041Z,89.37
2023-11-24T05:05:30.246Z,89.52
2023-11-24T05:08:00.602Z,89.81
2023-11-24T05:10:36.950Z,88.91
2023-11-24T05:13:08.844Z,88.73
2023-11-24T05:15:40.488Z,88.92
2023-11-24T05:18:10.726Z,88.45
2023-11-24T05:20:40.109Z,88.26
2023-11-24T05:23:15.704Z,88.52
2023-11-24T05:25:45.550Z,88.38
2023-11-24T05:28:17.978Z,88.76
2023-11-24T05:30:50.619Z,88.83
2023-11-24T05:33:20.060Z,88.13
2023-11-24T05:35:52.555Z,87.52
2023-11-24T05:38:24.971Z,87.80
2023-11-24T05:40:54.628Z,88.16
2023-11-24T05:43:25.721Z,87.77
2023-11-24T05:45:56.853Z,87.77
2023-11-24T05:48:30.347Z,87.53
2023-11-24T05:51:01.895Z,87.35
2023-11-24T05:53:31.903Z,87.79
2023-11-24T05:56:02.196Z,87.42
2023-11-24T05:58:33.339Z,87.62
2023-11-24T06:01:04.220Z,87.80
2023-11-24T06:03:36.686Z,87.80
2023-11-24T06:06:07.562Z,87.97
2023-11-24T06:08:38.215Z,87.43
2023-11-24T06:11:08.919Z,87.54
2023-11-24T06:13:40.376Z,87.55
2023-11-24T06:16:11.550Z,87.74
2023-11-24T06:18:43.712Z,88.16
2023-11-24T06:21:16.986Z,88.34
2023-11-24T06:23:47.339Z,88.57
2023-11-24T06:26:21.730Z,88.32
2023-11-24T06:28:52.787Z,88.64
2023-11-24T06:31:24.271Z,88.78
2023-11-24T06:33:55.044Z,88.02
2023-11-24T06:36:25.595Z,87.75
2023-11-24T06:38:56.679Z,88.36
2023-11-24T06:41:26.949Z,87.76
2023-11-24T06:43:59.445Z,87.58
2023-11-24T06:46:29.413Z,87.62
2023-11-24T06:49:01.300Z,87.14
2023-11-24T06:51:31.333Z,86.36
2023-11-24T06:54:01.178Z,87.89
2023-11-24T06:56:32.918Z,87.40
2023-11-24T06:59:07.152Z,86.68
2023-11-24T07:01:37.460Z,87.31
2023-11-24T07:04:09.320Z,86.67
2023-11-24T07:06:39.704Z,87.21
2023-11-24T07:09:13.130Z,87.63
2023-11-24T07:11:45.220Z,87.17
2023-11-24T07:14:16.971Z,87.47
2023-11-24T07:16:46.251Z,86.83
2023-11-24T07:19:15.251Z,86.80
2023-11-24T07:21:47.677Z,86.82
2023-11-24T07:24:16.924Z,86.68
2023-11-24T07:26:48.421Z,86.83
2023-11-24T07:29:18.076Z,87.44
2023-11-24T07:31:48.756Z,86.90
2023-11-24T07:34:19.480Z,86.55
2023-11-24T07:37:56.706Z,86.49
2023-11-24T07:40:46.491Z,85.60
2023-11-24T07:43:17.776Z,85.13
2023-11-24T07:45:51.902Z,85.24
2023-11-24T07:52:08.524Z,85.13
2023-11-24T07:54:45.289Z,85.30
2023-11-24T07:57:14.957Z,84.96
2023-11-24T07:59:45.601Z,85.28
2023-11-24T08:02:15.787Z,85.43
2023-11-24T08:04:46.415Z,85.39
2023-11-24T08:07:19.987Z,85.89
2023-11-24T08:09:51.697Z,86.49
2023-11-24T08:12:22.549Z,85.80
2023-11-24T08:14:52.316Z,85.70
2023-11-24T08:17:23.698Z,86.25
2023-11-24T08:19:53.633Z,85.37
2023-11-24T08:22:27.229Z,85.37
2023-11-24T08:24:57.757Z,84.98
2023-11-24T08:27:30.266Z,83.91
2023-11-24T08:30:05.144Z,83.31
2023-11-24T08:32:34.786Z,83.15
2023-11-24T08:35:05.837Z,82.35
2023-11-24T08:37:36.710Z,82.58
2023-11-24T08:40:12.616Z,82.61
2023-11-24T08:42:46.836Z,81.78
2023-11-24T08:45:18.940Z,81.36
2023-11-24T08:47:50.028Z,80.06
2023-11-24T08:50:22.128Z,76.61
2023-11-24T08:52:53.819Z,73.98
2023-11-24T08:55:26.050Z,71.46
2023-11-24T08:58:01.209Z,72.55
2023-11-24T09:00:31.376Z,72.03
2023-11-24T09:03:04.572Z,68.19
2023-11-24T09:05:43.559Z,68.64
2023-11-24T09:08:18.260Z,70.29
2023-11-24T09:10:52.854Z,71.46
2023-11-24T09:13:23.589Z,71.51
2023-11-24T09:15:53.553Z,69.72
2023-11-24T09:18:24.660Z,70.02
2023-11-24T09:20:57.206Z,68.47
2023-11-24T09:23:27.750Z,71.23
2023-11-24T09:26:02.485Z,72.60
2023-11-24T09:28:33.038Z,72.77
2023-11-24T09:31:10.086Z,76.39
2023-11-24T09:33:41.947Z,75.64
2023-11-24T09:36:13.503Z,76.47
2023-11-24T09:38:45.870Z,77.63
2023-11-24T09:41:19.308Z,78.41
2023-11-24T09:43:50.833Z,78.38
2023-11-24T09:46:20.568Z,78.53
2023-11-24T09:48:51.171Z,79.17
2023-11-24T09:51:24.469Z,77.72
2023-11-24T09:53:56.240Z,77.85
2023-11-24T09:56:27.383Z,77.59
2023-11-24T09:58:57.422Z,77.53
2023-11-24T10:01:32.589Z,77.06
2023-11-24T10:04:03.572Z,78.67
2023-11-24T10:06:41.433Z,78.19
2023-11-24T10:09:16.667Z,78.26
2023-11-24T10:11:50.357Z,78.18
2023-11-24T10:14:23.268Z,78.10
2023-11-24T10:16:55.468Z,78.22
2023-11-24T10:19:28.987Z,78.87
2023-11-24T10:21:59.215Z,77.77
2023-11-24T10:24:28.830Z,78.46
2023-11-24T10:27:19.420Z,79.32
2023-11-24T10:29:53.217Z,78.81
2023-11-24T10:32:24.889Z,80.00
2023-11-24T10:34:56.069Z,79.41
2023-11-24T10:37:26.592Z,79.12
2023-11-24T10:40:01.997Z,78.83
2023-11-24T10:42:36.408Z,78.74
2023-11-24T10:45:13.271Z,78.82
2023-11-24T10:48:23.703Z,77.13
2023-11-24T10:51:00.528Z,76.46
2023-11-24T10:53:40.322Z,76.27
2023-11-24T10:56:11.442Z,75.92
2023-11-24T10:58:43.316Z,75.05
2023-11-24T11:01:15.849Z,74.60
2023-11-24T11:04:00.624Z,74.81
2023-11-24T11:07:03.092Z,76.29
2023-11-24T11:09:44.286Z,75.19
2023-11-24T11:12:40.660Z,75.32
2023-11-24T11:15:12.333Z,74.72
2023-11-24T11:17:43.005Z,74.46
2023-11-24T11:20:16.712Z,74.17
2023-11-24T11:22:49.210Z,74.79
2023-11-24T11:25:24.651Z,74.22
2023-11-24T11:27:56.793Z,74.14
2023-11-24T11:30:29.693Z,74.51
2023-11-24T11:33:14.160Z,74.74
2023-11-24T11:35:44.488Z,74.56
2023-11-24T11:38:17.532Z,75.13
2023-11-24T11:40:53.351Z,74.16
2023-11-24T11:43:23.374Z,73.40
2023-11-24T11:45:58.598Z,74.53
2023-11-24T11:48:37.954Z,74.66
2023-11-24T11:51:17.195Z,73.51
2023-11-24T11:53:46.678Z,74.38
2023-11-24T11:56:17.477Z,74.27
2023-11-24T11:58:48.994Z,73.27
2023-11-24T12:01:18.756Z,73.57
2023-11-24T12:03:49.717Z,74.11
2023-11-24T12:06:21.897Z,74.67
2023-11-24T12:08:54.915Z,75.37
2023-11-24T12:11:29.246Z,75.60
2023-11-24T12:14:01.903Z,75.13
2023-11-24T12:16:35.158Z,74.85
2023-11-24T12:19:09.463Z,73.96
2023-11-24T12:21:40.989Z,74.58
2023-11-24T12:24:15.442Z,73.94
2023-11-24T12:26:47.316Z,73.79
2023-11-24T12:29:17.744Z,73.25
2023-11-24T12:31:47.918Z,73.55
2023-11-24T12:34:21.828Z,73.25
2023-11-24T12:36:56.141Z,73.08
2023-11-24T12:39:26.564Z,71.59
2023-11-24T12:41:56.555Z,72.45
2023-11-24T12:44:35.737Z,72.17
2023-11-24T12:47:12.498Z,72.22
2023-11-24T12:50:16.860Z,72.46
2023-11-24T12:52:47.064Z,72.64
2023-11-24T12:55:16.379Z,72.00
2023-11-24T12:57:49.290Z,72.21
2023-11-24T13:00:27.731Z,73.73
2023-11-24T13:02:58.484Z,72.36
2023-11-24T13:05:30.874Z,72.56
2023-11-24T13:08:00.474Z,72.91
2023-11-24T13:10:32.719Z,72.67
2023-11-24T13:13:03.303Z,72.80
2023-11-24T13:15:33.846Z,72.89
2023-11-24T13:18:03.239Z,71.90
2023-11-24T13:20:36.671Z,71.56
2023-11-24T13:23:07.675Z,71.53
2023-11-24T13:25:38.256Z,71.52
2023-11-24T13:28:08.914Z,72.17
2023-11-24T13:30:39.165Z,71.65
2023-11-24T13:33:10.003Z,71.62
2023-11-24T13:35:40.122Z,71.93
2023-11-24T13:38:11.179Z,72.21
2023-11-24T13:40:42.791Z,71.89
2023-11-24T13:43:14.928Z,72.48
2023-11-24T13:45:45.002Z,73.05
2023-11-24T13:48:30.571Z,73.62
2023-11-24T13:51:04.796Z,73.95
2023-11-24T13:53:37.864Z,73.92
2023-11-24T13:56:07.390Z,73.49
2023-11-24T13:58:40.104Z,73.44
2023-11-24T14:01:12.136Z,73.63
2023-11-24T14:03:48.251Z,73.80
2023-11-24T14:06:20.122Z,74.01
2023-11-24T14:08:51.391Z,74.34
2023-11-24T14:11:22.226Z,74.18
2023-11-24T14:13:53.674Z,74.38
2023-11-24T14:16:25.252Z,74.80
2023-11-24T14:18:56.005Z,74.78
2023-11-24T14:21:26.332Z,74.95
2023-11-24T14:23:57.590Z,75.15
2023-11-24T14:26:26.944Z,75.11
2023-11-24T14:28:56.673Z,75.30
2023-11-24T14:31:26.876Z,75.09
2023-11-24T14:34:01.594Z,75.28
2023-11-24T14:36:31.073Z,75.11
2023-11-24T14:39:01.208Z,75.23
2023-11-24T14:41:34.311Z,75.14
2023-11-24T14:44:06.978Z,75.49
2023-11-24T14:46:37.666Z,75.58
2023-11-24T14:49:07.662Z,75.60
2023-11-24T14:51:39.860Z,75.57
2023-11-24T14:54:10.524Z,76.02
2023-11-24T14:56:42.194Z,75.28
2023-11-24T14:59:12.462Z,75.71
2023-11-24T15:01:45.734Z,75.93
2023-11-24T15:04:19.179Z,75.93
2023-11-24T15:06:54.120Z,75.76
2023-11-24T15:09:26.663Z,75.50
2023-11-24T15:11:56.040Z,75.40
2023-11-24T15:14:34.346Z,75.14
2023-11-24T15:17:11.525Z,75.57
2023-11-24T15:19:42.588Z,75.37
2023-11-24T15:22:20.448Z,75.46
2023-11-24T15:24:56.033Z,75.32
2023-11-24T15:27:28.545Z,75.59
2023-11-24T15:29:58.199Z,75.77
2023-11-24T15:32:29.444Z,75.74
2023-11-24T15:35:00.503Z,75.63
2023-11-24T15:37:30.984Z,75.60
2023-11-24T15:40:02.916Z,75.29
2023-11-24T15:42:33.491Z,75.87
2023-11-24T15:45:04.293Z,75.58
2023-11-24T15:47:37.438Z,75.75
2023-11-24T15:50:12.988Z,76.34
2023-11-24T15:52:46.254Z,76.31
2023-11-24T15:55:17.832Z,76.35
2023-11-24T15:57:48.352Z,76.62
2023-11-24T16:00:28.104Z,76.62
2023-11-24T16:02:59.185Z,76.56
2023-11-24T16:05:34.003Z,76.50
2023-11-24T16:08:09.332Z,76.86
2023-11-24T16:10:46.935Z,77.03
2023-11-24T16:13:20.829Z,76.88
2023-11-24T16:15:52.151Z,76.55
2023-11-24T16:18:32.558Z,76.91
2023-11-24T16:21:06.478Z,76.68
2023-11-24T16:23:36.432Z,76.81
2023-11-24T16:26:11.630Z,76.94
2023-11-24T16:28:45.340Z,76.88
2023-11-24T16:31:17.536Z,77.12
2023-11-24T16:33:46.889Z,77.07
2023-11-24T16:36:20.407Z,77.09
2023-11-24T16:38:50.745Z,77.27
2023-11-24T16:41:21.257Z,77.13
2023-11-24T16:43:51.169Z,77.29
2023-11-24T16:46:26.647Z,77.27
2023-11-24T16:48:58.300Z,77.53
2023-11-24T16:51:30.109Z,77.51
2023-11-24T16:54:03.795Z,77.66
2023-11-24T16:56:38.252Z,77.41
2023-11-24T16:59:09.643Z,77.88
2023-11-24T17:01:41.232Z,77.67
2023-11-24T17:04:11.149Z,77.62
2023-11-24T17:06:43.039Z,77.63
2023-11-24T17:09:16.981Z,77.87
2023-11-24T17:11:48.592Z,77.90
2023-11-24T17:14:19.863Z,77.51
2023-11-24T17:16:49.663Z,77.33
2023-11-24T17:19:20.043Z,77.18
2023-11-24T17:21:51.010Z,77.57
2023-11-24T17:24:23.068Z,77.57
2023-11-24T17:26:53.667Z,77.53
2023-11-24T17:29:25.947Z,77.59
2023-11-24T17:31:58.124Z,77.63
2023-11-24T17:34:27.837Z,77.55
2023-11-24T17:36:59.042Z,77.34
2023-11-24T17:39:29.456Z,77.53
2023-11-24T17:42:00.068Z,77.62
2023-11-24T17:44:32.696Z,77.64
2023-11-24T17:47:06.056Z,78.15
2023-11-24T17:49:37.939Z,78.18
2023-11-24T17:52:09.091Z,78.41
2023-11-24T17:54:38.753Z,78.39
2023-11-24T17:57:10.119Z,79.00
2023-11-24T17:59:45.443Z,78.80
2023-11-24T18:02:18.538Z,79.03
2023-11-24T18:04:52.507Z,78.96
2023-11-24T18:07:24.535Z,79.04
2023-11-24T18:09:55.496Z,79.14
2023-11-24T18:12:28.204Z,79.27
2023-11-24T18:14:59.444Z,79.27
2023-11-24T18:17:35.753Z,79.43
2023-11-24T18:20:08.000Z,79.59
2023-11-24T18:22:49.236Z,79.90
2023-11-24T18:25:40.169Z,80.22
2023-11-24T18:44:58.534Z,80.09
2023-11-24T18:47:35.631Z,80.22
2023-11-24T18:50:09.341Z,80.17
2023-11-24T18:52:39.100Z,80.07
2023-11-24T18:55:10.985Z,80.13
2023-11-24T18:57:48.658Z,80.04
2023-11-24T19:00:21.014Z,80.17
2023-11-24T19:02:54.025Z,80.06
2023-11-24T19:05:30.912Z,80.31
2023-11-24T19:08:06.121Z,80.20
2023-11-24T19:10:37.982Z,80.27
2023-11-24T19:13:09.899Z,80.33
2023-11-24T19:15:42.757Z,80.13
2023-11-24T19:18:16.477Z,80.33
2023-11-24T19:20:48.243Z,80.13
2023-11-24T19:23:18.780Z,80.26
2023-11-24T19:25:49.984Z,80.57
2023-11-24T19:28:22.621Z,80.36
2023-11-24T19:30:53.755Z,80.42
2023-11-24T19:33:24.676Z,80.34
2023-11-24T19:36:07.954Z,80.37
2023-11-24T19:38:41.712Z,80.62
2023-11-24T19:41:16.355Z,80.69
2023-11-24T19:43:50.708Z,80.41
2023-11-24T19:46:25.876Z,80.88
2023-11-24T19:48:58.947Z,80.67
2023-11-24T19:51:34.823Z,80.64
2023-11-24T19:54:05.961Z,80.99
2023-11-24T19:56:38.312Z,80.82
2023-11-24T19:59:12.995Z,80.62
2023-11-24T20:01:57.694Z,80.89
2023-11-24T20:04:32.116Z,80.90
2023-11-24T20:07:06.345Z,80.98
2023-11-24T20:09:56.827Z,81.08
2023-11-24T20:12:32.629Z,80.95
2023-11-24T20:15:05.952Z,80.93
2023-11-24T20:17:38.773Z,81.30
2023-11-24T20:20:13.481Z,81.31
2023-11-24T20:22:44.843Z,81.31
2023-11-24T20:25:16.905Z,81.33
2023-11-24T20:27:53.016Z,81.30
2023-11-24T20:30:28.672Z,81.44
2023-11-24T20:33:00.325Z,81.19
2023-11-24T20:35:33.391Z,81.03
2023-11-24T20:38:05.177Z,81.34
2023-11-24T20:40:36.615Z,81.28
2023-11-24T20:43:09.280Z,81.30
2023-11-24T20:45:48.612Z,81.74
2023-11-24T20:48:29.896Z,81.53
2023-11-24T20:51:05.097Z,81.63
2023-11-24T20:53:38.039Z,81.75
2023-11-24T20:56:26.264Z,81.90
2023-11-24T20:59:10.265Z,82.13
2023-11-24T21:01:46.180Z,81.54
2023-11-24T21:04:23.808Z,82.30
2023-11-24T21:07:03.152Z,82.08
2023-11-24T21:09:36.340Z,81.99
2023-11-24T21:12:12.115Z,82.07
2023-11-24T21:14:45.012Z,81.99
2023-11-24T21:17:15.209Z,82.22
2023-11-24T21:19:46.234Z,82.11
2023-11-24T21:22:18.483Z,82.19
2023-11-24T21:24:53.160Z,82.41
2023-11-24T21:27:23.475Z,82.36
2023-11-24T21:29:54.687Z,82.29
2023-11-24T21:32:25.262Z,82.52
2023-11-24T21:34:56.219Z,82.57
2023-11-24T21:37:30.035Z,82.35
2023-11-24T21:40:03.510Z,82.53
2023-11-24T21:42:36.050Z,82.43
2023-11-24T21:45:09.092Z,82.75
2023-11-24T21:47:40.750Z,82.59
2023-11-24T21:50:14.924Z,82.78
2023-11-24T21:52:44.479Z,82.88
2023-11-24T21:55:15.035Z,82.62
2023-11-24T21:57:48.535Z,82.44
2023-11-24T22:00:19.513Z,82.51
2023-11-24T22:02:49.862Z,82.55
2023-11-24T22:05:20.632Z,82.74
2023-11-24T22:07:50.846Z,82.64
2023-11-24T22:10:21.531Z,82.53
2023-11-24T22:12:54.462Z,82.76
2023-11-24T22:15:24.036Z,82.75
2023-11-24T22:17:55.811Z,82.97
2023-11-24T22:20:29.090Z,82.89
2023-11-24T22:22:58.517Z,82.49
2023-11-24T22:25:29.289Z,82.93
2023-11-24T22:27:59.479Z,83.06
2023-11-24T22:30:29.412Z,83.31
2023-11-24T22:33:01.106Z,83.65
2023-11-24T22:35:33.699Z,83.39
2023-11-24T22:38:05.940Z,83.56
2023-11-24T22:40:38.172Z,83.30
2023-11-24T22:43:10.751Z,83.33
2023-11-24T22:45:40.329Z,83.38
2023-11-24T22:48:14.042Z,83.39
2023-11-24T22:50:45.162Z,83.33
2023-11-24T22:53:15.895Z,83.41
2023-11-24T22:55:49.150Z,83.28
2023-11-24T22:58:20.046Z,83.23
2023-11-24T23:00:52.069Z,83.42
2023-11-24T23:03:23.482Z,83.39
2023-11-24T23:05:55.547Z,83.47
2023-11-24T23:08:28.111Z,83.49
2023-11-24T23:11:01.048Z,83.64
2023-11-24T23:13:32.624Z,83.40
2023-11-24T23:16:05.331Z,83.28
2023-11-24T23:18:36.060Z,83.38
2023-11-24T23:21:16.391Z,83.55
2023-11-24T23:23:49.264Z,83.76
2023-11-24T23:26:22.972Z,83.49
2023-11-24T23:28:54.561Z,83.74
2023-11-24T23:31:28.779Z,83.71
2023-11-24T23:33:59.296Z,83.71
2023-11-24T23:36:30.089Z,83.70
2023-11-24T23:39:01.982Z,83.67
2023-11-24T23:41:33.111Z,83.72
2023-11-24T23:44:05.777Z,83.58
2023-11-24T23:46:36.829Z,83.76
2023-11-24T23:49:10.090Z,83.65
2023-11-24T23:51:41.803Z,83.90
2023-11-24T23:54:13.852Z,83.89
2023-11-24T23:56:46.745Z,83.95
2023-11-24T23:59:19.303Z,83.94
